Cheikh El Mokrani — C6WD5 — position and weather

sailwx.info

Track history (hours):
 
Tides and Currents Weather Stations Pressure Air Temp Water Temp Dewpoint Dewpoint Depression Visibility Wind Speed Wind Dir Waves Ship Positions

Cheikh El Mokrani

Last reported at 2017-Jan-17 03:31 UTC. Time now 2017-Jan-17 17:18 UTC.
Position N 39°16' E 001°14'.

Length 220 m; draft 8.2 m.

Type: Ship (hazmat cat D). MMSI: 309979000.

Date/timePositionNaut miles runAvg speedWind from/ knotsBaromVisibWave heightAir tempDewpointWater temp
2017-Jan-17 03:31N 39°16' E 001°14'1515.6
2017-Jan-17 02:33N 39°28' E 001°26'1615.6
2017-Jan-17 01:33N 39°41' E 001°38'1515.6
2017-Jan-17 00:33N 39°53' E 001°50'1515.3
2017-Jan-16 23:33N 40°06' E 002°01'1514.9
2017-Jan-16 22:33N 40°18' E 002°13'1514.7
2017-Jan-16 21:33N 40°30' E 002°24'1515.4
2017-Jan-16 20:33N 40°42' E 002°36'1515.4
2017-Jan-16 19:33N 40°55' E 002°48'1515.3
2017-Jan-16 18:33N 41°07' E 002°60'11816.5
2017-Jan-16 11:24N 42°43' E 004°32'1616.0
2017-Jan-16 10:25N 42°55' E 004°45'1315.1
2017-Jan-16 09:33N 43°06' E 004°56'1312.8
2017-Jan-16 08:33N 43°18' E 004°59'8 0.8
2017-Jan-15 22:31N 43°25' E 004°54'0 0.0
2017-Jan-15 16:31N 43°25' E 004°54'0 0.0
2017-Jan-15 15:28N 43°25' E 004°54'0 0.0
2017-Jan-15 14:31N 43°25' E 004°54'0 0.0
2017-Jan-15 13:31N 43°25' E 004°54'0 0.0
2017-Jan-15 12:25N 43°25' E 004°54'0 0.0
2017-Jan-15 11:31N 43°25' E 004°54'0 0.0
2017-Jan-15 10:25N 43°25' E 004°54'0 0.0
2017-Jan-15 09:31N 43°25' E 004°54'0 0.0
2017-Jan-15 06:33N 43°25' E 004°54'3 3.3
2017-Jan-15 05:33N 43°23' E 004°57'8 7.8
2017-Jan-15 04:34N 43°15' E 005°01'7 7.3
2017-Jan-15 03:34N 43°08' E 005°03'4 3.6
2017-Jan-15 02:34N 43°05' E 005°01'2 2.2
2017-Jan-15 01:33N 43°04' E 004°58'3 3.2
2017-Jan-15 00:33N 43°02' E 004°55'4 4.0
2017-Jan-14 23:33N 42°59' E 004°52'5 5.3
2017-Jan-14 22:33N 42°55' E 004°47'9 8.6
2017-Jan-14 21:34N 42°48' E 004°40'11911.6
2017-Jan-14 11:18N 41°12' E 003°06'1115.0
2017-Jan-14 10:33N 41°03' E 002°57'1615.6
2017-Jan-14 09:33N 40°50' E 002°45'1515.6
2017-Jan-14 08:33N 40°38' E 002°33'1615.6
2017-Jan-14 07:33N 40°25' E 002°21'1615.7
2017-Jan-14 06:33N 40°13' E 002°08'1515.0
2017-Jan-14 05:33N 40°00' E 001°57'1514.7
2017-Jan-14 04:33N 39°48' E 001°46'1514.6
2017-Jan-14 03:33N 39°37' E 001°34'  
2017-Jan-09 11:17N 36°38' E 013°37'1216.3
2017-Jan-09 10:33N 36°35' E 013°52'1716.6
2017-Jan-09 09:33N 36°31' E 014°12'1716.5
2017-Jan-09 08:33N 36°28' E 014°32'1716.4
2017-Jan-09 07:32N 36°24' E 014°52'43312.7
2017-Jan-07 21:33N 37°31' E 023°47'1616.2
2017-Jan-07 20:33N 37°45' E 023°39'1211.8
2017-Jan-07 19:33N 37°51' E 023°26'7 6.4
2017-Jan-07 18:32N 37°58' E 023°24'0 0.0
2017-Jan-07 17:32N 37°58' E 023°24'0 0.0
2017-Jan-07 16:33N 37°58' E 023°24'0 0.0
2017-Jan-07 15:33N 37°58' E 023°24'0 0.0
2017-Jan-07 14:32N 37°58' E 023°24'0 0.0
2017-Jan-07 13:32N 37°58' E 023°24'0 0.0
2017-Jan-07 12:32N 37°58' E 023°24'0 0.0
2017-Jan-07 11:32N 37°58' E 023°24'0 0.0
2017-Jan-07 10:32N 37°58' E 023°24'0 0.0
2017-Jan-07 09:32N 37°58' E 023°24'0 0.0
2017-Jan-07 08:32N 37°58' E 023°24'0 0.0
2017-Jan-07 07:32N 37°58' E 023°24'0 0.0
2017-Jan-07 06:33N 37°58' E 023°24'0 0.0
2017-Jan-07 05:32N 37°58' E 023°24'0 0.0
2017-Jan-07 04:32N 37°58' E 023°24'0 0.0
2017-Jan-07 03:32N 37°58' E 023°24'  
Track history (hours):
 
Tides and Currents Weather Stations Pressure Air Temp Water Temp Dewpoint Dewpoint Depression Visibility Wind Speed Wind Dir Waves Ship Positions

Cheikh El Mokrani

Last reported at 2017-Jan-17 03:31 UTC. Time now 2017-Jan-17 17:18 UTC.
Position N 39°16' E 001°14'.

Length 220 m; draft 8.2 m.

Type: Ship (hazmat cat D). MMSI: 309979000.

Date/timePositionNaut miles runAvg speedWind from/ knotsBaromVisibWave heightAir tempDewpointWater temp
2017-Jan-17 03:31N 39°16' E 001°14'1515.6
2017-Jan-17 02:33N 39°28' E 001°26'1615.6
2017-Jan-17 01:33N 39°41' E 001°38'1515.6
2017-Jan-17 00:33N 39°53' E 001°50'1515.3
2017-Jan-16 23:33N 40°06' E 002°01'1514.9
2017-Jan-16 22:33N 40°18' E 002°13'1514.7
2017-Jan-16 21:33N 40°30' E 002°24'1515.4
2017-Jan-16 20:33N 40°42' E 002°36'1515.4
2017-Jan-16 19:33N 40°55' E 002°48'1515.3
2017-Jan-16 18:33N 41°07' E 002°60'11816.5
2017-Jan-16 11:24N 42°43' E 004°32'1616.0
2017-Jan-16 10:25N 42°55' E 004°45'1315.1
2017-Jan-16 09:33N 43°06' E 004°56'1312.8
2017-Jan-16 08:33N 43°18' E 004°59'8 0.8
2017-Jan-15 22:31N 43°25' E 004°54'0 0.0
2017-Jan-15 16:31N 43°25' E 004°54'0 0.0
2017-Jan-15 15:28N 43°25' E 004°54'0 0.0
2017-Jan-15 14:31N 43°25' E 004°54'0 0.0
2017-Jan-15 13:31N 43°25' E 004°54'0 0.0
2017-Jan-15 12:25N 43°25' E 004°54'0 0.0
2017-Jan-15 11:31N 43°25' E 004°54'0 0.0
2017-Jan-15 10:25N 43°25' E 004°54'0 0.0
2017-Jan-15 09:31N 43°25' E 004°54'0 0.0
2017-Jan-15 06:33N 43°25' E 004°54'3 3.3
2017-Jan-15 05:33N 43°23' E 004°57'8 7.8
2017-Jan-15 04:34N 43°15' E 005°01'7 7.3
2017-Jan-15 03:34N 43°08' E 005°03'4 3.6
2017-Jan-15 02:34N 43°05' E 005°01'2 2.2
2017-Jan-15 01:33N 43°04' E 004°58'3 3.2
2017-Jan-15 00:33N 43°02' E 004°55'4 4.0
2017-Jan-14 23:33N 42°59' E 004°52'5 5.3
2017-Jan-14 22:33N 42°55' E 004°47'9 8.6
2017-Jan-14 21:34N 42°48' E 004°40'11911.6
2017-Jan-14 11:18N 41°12' E 003°06'1115.0
2017-Jan-14 10:33N 41°03' E 002°57'1615.6
2017-Jan-14 09:33N 40°50' E 002°45'1515.6
2017-Jan-14 08:33N 40°38' E 002°33'1615.6
2017-Jan-14 07:33N 40°25' E 002°21'1615.7
2017-Jan-14 06:33N 40°13' E 002°08'1515.0
2017-Jan-14 05:33N 40°00' E 001°57'1514.7
2017-Jan-14 04:33N 39°48' E 001°46'1514.6
2017-Jan-14 03:33N 39°37' E 001°34'  
2017-Jan-09 11:17N 36°38' E 013°37'1216.3
2017-Jan-09 10:33N 36°35' E 013°52'1716.6
2017-Jan-09 09:33N 36°31' E 014°12'1716.5
2017-Jan-09 08:33N 36°28' E 014°32'1716.4
2017-Jan-09 07:32N 36°24' E 014°52'43312.7
2017-Jan-07 21:33N 37°31' E 023°47'1616.2
2017-Jan-07 20:33N 37°45' E 023°39'1211.8
2017-Jan-07 19:33N 37°51' E 023°26'7 6.4
2017-Jan-07 18:32N 37°58' E 023°24'0 0.0
2017-Jan-07 17:32N 37°58' E 023°24'0 0.0
2017-Jan-07 16:33N 37°58' E 023°24'0 0.0
2017-Jan-07 15:33N 37°58' E 023°24'0 0.0
2017-Jan-07 14:32N 37°58' E 023°24'0 0.0
2017-Jan-07 13:32N 37°58' E 023°24'0 0.0
2017-Jan-07 12:32N 37°58' E 023°24'0 0.0
2017-Jan-07 11:32N 37°58' E 023°24'0 0.0
2017-Jan-07 10:32N 37°58' E 023°24'0 0.0
2017-Jan-07 09:32N 37°58' E 023°24'0 0.0
2017-Jan-07 08:32N 37°58' E 023°24'0 0.0
2017-Jan-07 07:32N 37°58' E 023°24'0 0.0
2017-Jan-07 06:33N 37°58' E 023°24'0 0.0
2017-Jan-07 05:32N 37°58' E 023°24'0 0.0
2017-Jan-07 04:32N 37°58' E 023°24'0 0.0
2017-Jan-07 03:32N 37°58' E 023°24'  

Dump ship's entire track history